Time;durP1;ratioP1;P1;durP2;ratioP2;P2;SDS_P1;SDS_P2;PMS_P1;PMS_P2;Temp;Humidity;BMP_temperature;BMP_pressure;BME280_temperature;BME280_humidity;BME280_pressure;Samples;Min_cycle;Max_cycle;Signal;HPM_P1;HPM_P2
2022/10/31 00:00:57;;;;;;;3.05;2.85;;;20.70;67.80;;;;;;5079032;27;45196;-59
2022/10/31 00:03:26;;;;;;;3.25;2.85;;;20.70;67.80;;;;;;5073563;27;43803;-59
2022/10/31 00:05:53;;;;;;;2.50;2.30;;;20.60;67.80;;;;;;5064310;28;43422;-59
2022/10/31 00:08:20;;;;;;;3.45;2.95;;;20.60;67.80;;;;;;5078782;27;43451;-59
2022/10/31 00:10:48;;;;;;;2.97;2.67;;;20.60;67.80;;;;;;5079358;27;43996;-59
2022/10/31 00:13:15;;;;;;;3.33;2.97;;;20.60;67.80;;;;;;5078179;27;43391;-59
2022/10/31 00:15:43;;;;;;;3.83;3.00;;;20.60;67.80;;;;;;5074513;28;43562;-59
2022/10/31 00:18:10;;;;;;;2.78;2.42;;;20.60;67.90;;;;;;5062516;28;43502;-59
2022/10/31 00:20:38;;;;;;;2.67;2.47;;;20.60;67.80;;;;;;5071948;28;44253;-59
2022/10/31 00:23:06;;;;;;;2.70;2.50;;;20.60;67.90;;;;;;5077506;28;43835;-59
2022/10/31 00:25:37;;;;;;;2.55;2.35;;;20.60;67.90;;;;;;5076924;28;43505;-59
2022/10/31 00:28:07;;;;;;;3.00;2.70;;;20.60;67.90;;;;;;5079528;28;43434;-59
2022/10/31 00:30:34;;;;;;;2.67;2.47;;;20.60;67.90;;;;;;5077027;28;44027;-59
2022/10/31 00:33:04;;;;;;;2.75;2.55;;;20.60;67.80;;;;;;5079784;27;43788;-59
2022/10/31 00:35:32;;;;;;;2.58;2.38;;;20.50;67.80;;;;;;5078901;28;43441;-59
2022/10/31 00:38:00;;;;;;;3.33;2.70;;;20.50;67.80;;;;;;5072465;28;43405;-59
2022/10/31 00:40:28;;;;;;;2.83;2.60;;;20.50;67.80;;;;;;5082377;28;44863;-59
2022/10/31 00:42:55;;;;;;;2.85;2.40;;;20.50;67.80;;;;;;5070193;27;43386;-59
2022/10/31 00:45:23;;;;;;;2.75;2.28;;;20.50;67.90;;;;;;5081414;28;43504;-59
2022/10/31 00:47:51;;;;;;;2.92;2.05;;;20.50;67.90;;;;;;5082568;27;43411;-59
2022/10/31 00:50:18;;;;;;;3.20;2.45;;;20.50;67.80;;;;;;5074233;27;44978;-59
2022/10/31 00:52:46;;;;;;;2.53;2.30;;;20.50;67.90;;;;;;5081952;28;43435;-59
2022/10/31 00:55:13;;;;;;;4.22;2.13;;;20.50;67.90;;;;;;5080371;28;43484;-59
2022/10/31 00:57:41;;;;;;;2.60;2.40;;;20.50;67.90;;;;;;5080593;28;43514;-59
2022/10/31 01:00:10;;;;;;;2.13;1.98;;;20.50;67.90;;;;;;5081146;28;43789;-59
2022/10/31 01:02:37;;;;;;;2.30;2.10;;;20.50;67.90;;;;;;5064864;28;43445;-59
2022/10/31 01:05:06;;;;;;;2.50;2.30;;;20.50;67.90;;;;;;5068660;28;43502;-59
2022/10/31 01:07:37;;;;;;;2.75;2.38;;;20.50;68.60;;;;;;5082318;28;43522;-59
2022/10/31 01:10:09;;;;;;;2.70;2.33;;;20.50;67.90;;;;;;5082529;27;45227;-59
2022/10/31 01:12:43;;;;;;;4.28;2.33;;;20.40;67.90;;;;;;5063537;28;43467;-59
2022/10/31 01:15:12;;;;;;;2.42;2.08;;;20.50;68.00;;;;;;5082504;27;43438;-59
2022/10/31 01:17:41;;;;;;;3.30;2.63;;;20.40;67.90;;;;;;5070753;28;43507;-59
2022/10/31 01:20:13;;;;;;;2.40;2.17;;;20.40;67.90;;;;;;5066788;28;43796;-59
2022/10/31 01:22:40;;;;;;;2.87;2.57;;;20.40;67.90;;;;;;5079497;28;43834;-59
2022/10/31 01:25:11;;;;;;;2.00;1.90;;;20.40;67.90;;;;;;5082160;28;43397;-59
2022/10/31 01:27:39;;;;;;;2.53;2.33;;;20.40;67.90;;;;;;5080027;28;43443;-59
2022/10/31 01:30:07;;;;;;;4.22;2.38;;;20.40;67.90;;;;;;5077738;28;44661;-59
2022/10/31 01:32:35;;;;;;;2.50;2.30;;;20.40;67.90;;;;;;5079294;28;43676;-59
2022/10/31 01:35:02;;;;;;;2.60;2.40;;;20.40;68.00;;;;;;5082081;27;43356;-59
2022/10/31 01:37:31;;;;;;;2.83;2.40;;;20.40;67.90;;;;;;5080270;28;43495;-59
2022/10/31 01:39:58;;;;;;;3.15;2.28;;;20.40;68.00;;;;;;5077297;28;44941;-59
2022/10/31 01:42:26;;;;;;;2.92;2.28;;;20.40;68.00;;;;;;5079138;28;43377;-59
2022/10/31 01:44:55;;;;;;;2.10;1.90;;;20.40;68.00;;;;;;5080414;28;43439;-59
2022/10/31 01:47:32;;;;;;;2.47;2.10;;;20.40;68.00;;;;;;5081080;27;43568;-59
2022/10/31 01:50:04;;;;;;;2.30;2.10;;;20.40;68.00;;;;;;5077254;28;44001;-59
2022/10/31 01:52:38;;;;;;;2.53;2.20;;;20.30;68.00;;;;;;5063651;28;43411;-59
2022/10/31 01:55:16;;;;;;;2.28;2.10;;;20.30;68.00;;;;;;5072992;28;43519;-59
2022/10/31 01:57:47;;;;;;;2.47;2.20;;;20.30;68.00;;;;;;5078314;27;43494;-59
2022/10/31 02:00:18;;;;;;;2.00;1.90;;;20.30;67.90;;;;;;5070932;28;44045;-59
2022/10/31 02:02:47;;;;;;;2.92;2.30;;;20.30;68.00;;;;;;5080304;27;43806;-59
2022/10/31 02:05:19;;;;;;;2.47;2.28;;;20.30;68.00;;;;;;5067393;28;43441;-59
2022/10/31 02:08:04;;;;;;;2.80;2.40;;;20.30;68.00;;;;;;5080706;27;43412;-59
2022/10/31 02:10:33;;;;;;;3.13;2.00;;;20.30;68.00;;;;;;5080493;27;44786;-59
2022/10/31 02:13:04;;;;;;;2.88;2.00;;;20.30;68.00;;;;;;5079940;28;43839;-59
2022/10/31 02:15:37;;;;;;;2.50;2.03;;;20.30;68.00;;;;;;5063099;28;43428;-59
2022/10/31 02:18:06;;;;;;;2.70;2.50;;;20.30;68.10;;;;;;5067620;28;43438;-59
2022/10/31 02:20:50;;;;;;;2.17;2.00;;;20.30;68.00;;;;;;5073682;28;43824;-59
2022/10/31 02:23:33;;;;;;;2.40;2.20;;;20.20;68.00;;;;;;5062789;28;43957;-59
2022/10/31 02:26:43;;;;;;;2.75;1.90;;;20.20;68.00;;;;;;5076843;28;43546;-59
2022/10/31 02:29:47;;;;;;;2.10;1.90;;;20.20;68.00;;;;;;5041487;28;43474;-59
2022/10/31 02:32:42;;;;;;;2.42;2.00;;;20.20;68.00;;;;;;5079430;28;43966;-59
2022/10/31 02:35:17;;;;;;;2.55;2.20;;;20.20;68.00;;;;;;5075999;28;43608;-59
2022/10/31 02:38:03;;;;;;;2.28;2.10;;;20.20;68.10;;;;;;5082273;28;43437;-59
2022/10/31 02:41:01;;;;;;;1.95;1.85;;;20.20;68.10;;;;;;5068121;28;43491;-59
2022/10/31 02:44:08;;;;;;;2.20;2.00;;;20.20;68.10;;;;;;5081663;28;43786;-59
2022/10/31 02:47:12;;;;;;;2.13;1.70;;;20.10;68.00;;;;;;5076709;28;43436;-59
2022/10/31 02:50:18;;;;;;;2.13;1.92;;;20.10;68.10;;;;;;5065552;28;43407;-59
2022/10/31 02:52:51;;;;;;;2.05;1.92;;;20.10;68.10;;;;;;5076863;28;43557;-59
2022/10/31 02:55:25;;;;;;;2.00;1.90;;;20.10;68.10;;;;;;5079709;27;44623;-59
2022/10/31 02:58:10;;;;;;;1.67;1.58;;;20.10;68.10;;;;;;5078804;28;43388;-59
2022/10/31 03:01:30;;;;;;;2.20;1.75;;;20.10;68.10;;;;;;5059741;28;43554;-59
2022/10/31 03:04:16;;;;;;;2.65;1.95;;;20.10;68.10;;;;;;5048733;28;43479;-59
2022/10/31 03:06:57;;;;;;;1.98;1.67;;;20.10;68.10;;;;;;5066031;28;44183;-59
2022/10/31 03:09:32;;;;;;;2.15;1.95;;;20.10;68.10;;;;;;5069470;28;43440;-59
2022/10/31 03:12:03;;;;;;;1.92;1.83;;;20.10;68.10;;;;;;5078668;28;43444;-59
2022/10/31 03:14:48;;;;;;;2.50;1.77;;;20.10;68.20;;;;;;5075405;28;43518;-59
2022/10/31 03:17:25;;;;;;;1.90;1.80;;;20.10;68.10;;;;;;5071991;28;44715;-59
2022/10/31 03:19:58;;;;;;;1.90;1.80;;;20.10;68.20;;;;;;5070525;28;43398;-59
2022/10/31 03:22:29;;;;;;;1.77;1.67;;;20.00;68.20;;;;;;5062805;28;43440;-59
2022/10/31 03:25:02;;;;;;;1.98;1.75;;;20.00;68.20;;;;;;5068264;28;43423;-59
2022/10/31 03:27:33;;;;;;;1.90;1.80;;;20.10;68.20;;;;;;5078514;28;43971;-59
2022/10/31 03:30:05;;;;;;;2.38;1.92;;;20.00;68.80;;;;;;5077085;28;43503;-60
2022/10/31 03:33:01;;;;;;;2.17;1.77;;;20.00;68.20;;;;;;5065948;28;43504;-59
2022/10/31 03:35:32;;;;;;;2.20;1.95;;;20.00;68.20;;;;;;5061805;28;43537;-59
2022/10/31 03:38:03;;;;;;;1.98;1.70;;;20.00;68.20;;;;;;5075707;28;44975;-59
2022/10/31 03:40:37;;;;;;;2.33;2.13;;;20.00;68.20;;;;;;5061475;28;43377;-59
2022/10/31 03:43:07;;;;;;;;;;;20.00;68.20;;;;;;5072531;28;43558;-59
2022/10/31 03:45:42;;;;;;;1.83;1.73;;;20.00;68.20;;;;;;5079441;27;43670;-59
2022/10/31 03:48:09;;;;;;;2.20;2.00;;;19.90;68.30;;;;;;5076354;28;44717;-59
2022/10/31 03:50:44;;;;;;;1.92;1.73;;;19.90;68.40;;;;;;5071787;28;43456;-59
2022/10/31 03:53:25;;;;;;;1.83;1.73;;;19.90;68.20;;;;;;5061395;28;43567;-59
2022/10/31 03:55:57;;;;;;;;;;;20.00;68.20;;;;;;5076083;28;43543;-59
2022/10/31 03:58:29;;;;;;;1.90;1.70;;;19.90;68.30;;;;;;5078454;28;43919;-59
2022/10/31 04:00:59;;;;;;;1.75;1.65;;;19.90;68.30;;;;;;5077258;28;43465;-59
2022/10/31 04:03:30;;;;;;;2.10;1.90;;;19.90;68.30;;;;;;5071588;28;43511;-59
2022/10/31 04:06:05;;;;;;;2.95;1.90;;;20.00;68.30;;;;;;5047447;28;43563;-59
2022/10/31 04:08:41;;;;;;;2.08;1.90;;;19.90;68.20;;;;;;5076275;28;44897;-59
2022/10/31 04:11:16;;;;;;;2.03;1.92;;;19.90;68.20;;;;;;5077459;28;43448;-59
2022/10/31 04:13:54;;;;;;;1.90;1.80;;;19.90;68.20;;;;;;5077945;28;43377;-59
2022/10/31 04:16:23;;;;;;;1.70;1.60;;;19.90;68.20;;;;;;5077130;27;43654;-59
2022/10/31 04:18:51;;;;;;;1.90;1.80;;;19.90;68.20;;;;;;5060949;28;43805;-59
2022/10/31 04:21:19;;;;;;;2.42;1.80;;;19.90;68.20;;;;;;5060345;28;44939;-59
2022/10/31 04:23:48;;;;;;;1.85;1.75;;;19.90;68.20;;;;;;5068557;28;43492;-59
2022/10/31 04:26:24;;;;;;;1.83;1.73;;;19.90;68.20;;;;;;5078071;28;43476;-59
2022/10/31 04:28:51;;;;;;;1.85;1.75;;;19.80;68.20;;;;;;5078350;27;44865;-59
2022/10/31 04:31:19;;;;;;;1.90;1.80;;;19.80;68.20;;;;;;5075258;28;43418;-59
2022/10/31 04:33:48;;;;;;;1.60;1.50;;;19.90;68.20;;;;;;5077915;28;43481;-59
2022/10/31 04:36:17;;;;;;;2.03;1.77;;;19.80;68.20;;;;;;5080309;28;44093;-59
2022/10/31 04:38:45;;;;;;;2.05;1.77;;;19.80;68.20;;;;;;5076751;28;44017;-59
2022/10/31 04:41:25;;;;;;;1.77;1.67;;;19.90;68.20;;;;;;5077791;28;43461;-59
2022/10/31 04:43:58;;;;;;;1.95;1.77;;;19.80;68.20;;;;;;5063604;28;43555;-59
2022/10/31 04:46:27;;;;;;;1.92;1.83;;;19.80;68.20;;;;;;5073522;28;43611;-59
2022/10/31 04:48:56;;;;;;;2.38;1.80;;;19.80;68.20;;;;;;5074742;28;44984;-59
2022/10/31 04:51:24;;;;;;;1.98;1.70;;;19.80;68.20;;;;;;5076989;28;43470;-59
2022/10/31 04:53:51;;;;;;;1.70;1.60;;;19.80;68.10;;;;;;5065534;28;43424;-59
2022/10/31 04:56:37;;;;;;;1.73;1.63;;;19.80;68.20;;;;;;5077614;28;43466;-59
2022/10/31 04:59:11;;;;;;;2.00;1.80;;;19.80;68.20;;;;;;5064905;28;44913;-59
2022/10/31 05:01:51;;;;;;;2.60;1.98;;;19.80;68.20;;;;;;5077280;28;43477;-59
2022/10/31 05:04:42;;;;;;;2.00;1.90;;;19.80;68.20;;;;;;5060318;28;43481;-59
2022/10/31 05:07:09;;;;;;;1.88;1.77;;;19.80;68.20;;;;;;5065501;28;43365;-59
2022/10/31 05:09:37;;;;;;;1.95;1.70;;;19.70;68.20;;;;;;5076923;28;44049;-59
2022/10/31 05:12:04;;;;;;;2.80;2.10;;;19.80;68.20;;;;;;5076820;28;43491;-59
2022/10/31 05:14:51;;;;;;;1.67;1.58;;;19.80;68.20;;;;;;5078145;28;43435;-59
2022/10/31 05:17:36;;;;;;;2.42;2.00;;;19.80;68.20;;;;;;5062796;28;43601;-59
2022/10/31 05:20:26;;;;;;;2.15;2.03;;;19.70;68.90;;;;;;5065366;28;44679;-59
2022/10/31 05:23:17;;;;;;;1.80;1.60;;;19.70;68.20;;;;;;5026927;28;43521;-58
2022/10/31 05:25:44;;;;;;;1.80;1.70;;;19.70;68.20;;;;;;5074956;28;43433;-59
2022/10/31 05:28:12;;;;;;;1.98;1.77;;;19.70;68.20;;;;;;5078838;27;43462;-59
2022/10/31 05:30:39;;;;;;;2.10;1.90;;;19.70;68.20;;;;;;5080583;28;44658;-59
2022/10/31 05:33:11;;;;;;;2.13;1.90;;;19.70;68.20;;;;;;5080105;28;43994;-59
2022/10/31 05:35:57;;;;;;;1.88;1.77;;;19.70;68.10;;;;;;5074576;28;43441;-59
2022/10/31 05:38:43;;;;;;;1.80;1.70;;;19.70;68.20;;;;;;5073360;28;43437;-59
2022/10/31 05:41:19;;;;;;;1.88;1.77;;;19.70;68.20;;;;;;5081866;27;44042;-59
2022/10/31 05:43:47;;;;;;;1.70;1.60;;;19.60;68.20;;;;;;5065569;28;43925;-59
2022/10/31 05:46:18;;;;;;;1.65;1.55;;;19.70;68.20;;;;;;5079757;28;43514;-59
2022/10/31 05:49:04;;;;;;;1.60;1.50;;;19.70;68.20;;;;;;5082039;28;43510;-59
2022/10/31 05:51:50;;;;;;;2.35;1.80;;;19.60;68.10;;;;;;5081289;28;44667;-59
2022/10/31 05:54:20;;;;;;;1.63;1.52;;;19.60;68.20;;;;;;5082255;28;43714;-59
2022/10/31 05:56:48;;;;;;;2.03;1.92;;;19.60;68.20;;;;;;5080305;28;43482;-59
2022/10/31 05:59:15;;;;;;;1.50;1.40;;;19.60;68.20;;;;;;5081711;27;43477;-59
2022/10/31 06:01:44;;;;;;;1.70;1.60;;;19.60;68.10;;;;;;5060733;28;44995;-59
2022/10/31 06:04:36;;;;;;;1.67;1.50;;;19.60;68.20;;;;;;5073687;28;44072;-60
2022/10/31 06:07:03;;;;;;;1.60;1.50;;;19.60;68.20;;;;;;5050757;28;43411;-59
2022/10/31 06:09:32;;;;;;;1.80;1.70;;;19.60;68.20;;;;;;5066957;28;43625;-59
2022/10/31 06:11:59;;;;;;;1.90;1.80;;;19.60;68.40;;;;;;5068736;28;45035;-59
2022/10/31 06:14:45;;;;;;;1.65;1.55;;;19.60;68.20;;;;;;5080556;28;43865;-59
2022/10/31 06:17:13;;;;;;;1.75;1.60;;;19.60;68.20;;;;;;5071774;27;43486;-59
2022/10/31 06:19:43;;;;;;;1.90;1.50;;;19.60;68.20;;;;;;5073587;27;43553;-59
2022/10/31 06:22:15;;;;;;;1.88;1.77;;;19.60;68.10;;;;;;5066228;28;44977;-59
2022/10/31 06:24:43;;;;;;;1.73;1.58;;;19.60;68.10;;;;;;5071552;27;43487;-59
2022/10/31 06:27:37;;;;;;;1.63;1.52;;;19.60;68.10;;;;;;5062437;28;43562;-59
2022/10/31 06:30:11;;;;;;;2.15;2.05;;;19.60;68.00;;;;;;5067496;27;43440;-59
2022/10/31 06:32:38;;;;;;;1.63;1.52;;;19.60;68.10;;;;;;5073255;28;44964;-59
2022/10/31 06:35:06;;;;;;;1.70;1.60;;;19.60;68.00;;;;;;5074306;28;43831;-59
2022/10/31 06:37:35;;;;;;;2.00;1.40;;;19.60;68.00;;;;;;5061973;28;43744;-59
2022/10/31 06:40:14;;;;;;;1.85;1.70;;;19.60;68.10;;;;;;5058138;28;43485;-59
2022/10/31 06:43:02;;;;;;;1.58;1.48;;;19.60;68.70;;;;;;5066339;28;44716;-59
2022/10/31 06:45:31;;;;;;;1.88;1.75;;;19.60;68.00;;;;;;5077788;28;43427;-59
2022/10/31 06:48:18;;;;;;;1.80;1.70;;;19.60;68.00;;;;;;5069940;28;43993;-59
2022/10/31 06:51:25;;;;;;;2.95;1.58;;;19.60;68.00;;;;;;5018992;28;43667;-59
2022/10/31 06:53:53;;;;;;;2.05;1.83;;;19.60;68.10;;;;;;4988096;28;43878;-59
2022/10/31 06:56:25;;;;;;;1.60;1.50;;;19.60;68.10;;;;;;5027843;28;43450;-59
2022/10/31 06:58:55;;;;;;;1.77;1.67;;;19.60;68.10;;;;;;5072378;28;43543;-59
2022/10/31 07:01:46;;;;;;;1.60;1.50;;;19.60;68.00;;;;;;5068400;28;43583;-59
2022/10/31 07:04:13;;;;;;;1.92;1.75;;;19.60;68.00;;;;;;5062698;28;44962;-59
2022/10/31 07:06:42;;;;;;;1.77;1.67;;;19.50;67.90;;;;;;5063172;28;43460;-59
2022/10/31 07:09:16;;;;;;;1.48;1.38;;;19.50;67.90;;;;;;5060427;28;43459;-59
2022/10/31 07:11:44;;;;;;;1.70;1.50;;;19.50;67.90;;;;;;5064271;28;43541;-59
2022/10/31 07:14:12;;;;;;;2.03;1.40;;;19.50;67.90;;;;;;5061860;28;43838;-58
2022/10/31 07:16:39;;;;;;;1.52;1.42;;;19.50;68.00;;;;;;5071294;28;43801;-59
2022/10/31 07:19:07;;;;;;;1.65;1.27;;;19.50;68.00;;;;;;5073343;28;43435;-59
2022/10/31 07:21:34;;;;;;;2.25;1.70;;;19.50;68.00;;;;;;5078571;27;43541;-59
2022/10/31 07:24:02;;;;;;;1.60;1.50;;;19.50;68.00;;;;;;5065785;28;44596;-59
2022/10/31 07:26:49;;;;;;;1.55;1.45;;;19.50;68.10;;;;;;5063359;28;43832;-59
2022/10/31 07:29:16;;;;;;;1.67;1.58;;;19.50;68.10;;;;;;5067660;28;43547;-59
2022/10/31 07:31:46;;;;;;;1.83;1.67;;;19.50;68.10;;;;;;5072054;28;43512;-59
2022/10/31 07:34:20;;;;;;;2.17;1.75;;;19.50;68.10;;;;;;5067465;28;44063;-59
2022/10/31 07:37:06;;;;;;;1.83;1.30;;;19.50;68.10;;;;;;5075757;28;43695;-59
2022/10/31 07:39:35;;;;;;;1.60;1.50;;;19.40;68.10;;;;;;5070288;28;43435;-59
2022/10/31 07:42:02;;;;;;;1.35;1.25;;;19.50;68.20;;;;;;5073525;28;43741;-59
2022/10/31 07:44:31;;;;;;;1.70;1.60;;;19.50;68.10;;;;;;5070395;28;43797;-59
2022/10/31 07:47:17;;;;;;;1.48;1.38;;;19.40;68.10;;;;;;5066901;28;44015;-59
2022/10/31 07:50:03;;;;;;;1.48;1.38;;;19.50;68.20;;;;;;5073827;28;43467;-59
2022/10/31 07:53:07;;;;;;;1.40;1.30;;;19.40;68.00;;;;;;5042424;28;43430;-59
2022/10/31 07:55:49;;;;;;;1.50;1.40;;;19.40;68.00;;;;;;5064143;28;44963;-59
2022/10/31 07:58:18;;;;;;;1.85;1.50;;;19.40;68.10;;;;;;5073649;28;43948;-59
2022/10/31 08:00:47;;;;;;;1.50;1.40;;;19.40;68.00;;;;;;5063713;28;43489;-59
2022/10/31 08:03:23;;;;;;;1.45;1.35;;;19.50;68.00;;;;;;5077149;28;43530;-59
2022/10/31 08:06:09;;;;;;;1.30;1.20;;;19.40;68.00;;;;;;5073876;28;44724;-59
2022/10/31 08:08:42;;;;;;;1.40;1.30;;;19.40;68.00;;;;;;5078231;27;43486;-60
2022/10/31 08:11:10;;;;;;;1.40;1.30;;;19.40;67.90;;;;;;5064971;28;43436;-60
2022/10/31 08:13:38;;;;;;;1.40;1.30;;;19.40;67.90;;;;;;5068838;28;43574;-60
2022/10/31 08:16:07;;;;;;;2.15;1.40;;;19.40;67.80;;;;;;5045566;28;44674;-60
2022/10/31 08:18:40;;;;;;;1.38;1.27;;;19.50;67.90;;;;;;5065112;28;44003;-60
2022/10/31 08:21:10;;;;;;;1.13;1.13;;;19.50;67.90;;;;;;5064069;28;44115;-60
2022/10/31 08:23:38;;;;;;;1.50;1.40;;;19.50;67.90;;;;;;5064462;28;43620;-60
2022/10/31 08:26:07;;;;;;;1.15;1.08;;;19.50;67.90;;;;;;5046261;28;45759;-60
2022/10/31 08:28:34;;;;;;;1.38;1.27;;;19.50;68.00;;;;;;5064980;28;43905;-60
2022/10/31 08:31:02;;;;;;;1.10;1.10;;;19.50;67.90;;;;;;5067601;28;43714;-60
2022/10/31 08:33:39;;;;;;;1.50;1.40;;;19.50;67.90;;;;;;5068146;28;43553;-60
2022/10/31 08:36:20;;;;;;;1.50;1.40;;;19.50;68.00;;;;;;5062229;28;43618;-60
2022/10/31 08:38:48;;;;;;;1.98;1.30;;;19.50;68.00;;;;;;5063626;28;44024;-60
2022/10/31 08:41:16;;;;;;;1.40;1.30;;;19.50;68.00;;;;;;5064474;28;43650;-60
2022/10/31 08:43:44;;;;;;;1.67;1.58;;;19.50;68.00;;;;;;5064682;28;43677;-60
2022/10/31 08:46:12;;;;;;;2.13;1.40;;;19.50;68.00;;;;;;5050727;28;44176;-60
2022/10/31 08:48:41;;;;;;;1.30;1.20;;;19.50;68.00;;;;;;5067661;28;43563;-59
2022/10/31 08:51:10;;;;;;;1.45;1.33;;;19.50;68.10;;;;;;5071492;28;43456;-59
2022/10/31 08:53:37;;;;;;;2.33;1.98;;;19.50;68.00;;;;;;5065825;28;43598;-61
2022/10/31 08:56:40;;;;;;;2.45;2.25;;;19.50;68.30;;;;;;5010057;28;45031;-60
2022/10/31 08:59:22;;;;;;;2.53;2.33;;;19.50;68.50;;;;;;5064153;28;43814;-60
2022/10/31 09:02:13;;;;;;;2.70;2.28;;;19.50;68.50;;;;;;5061757;27;43418;-61
2022/10/31 09:04:41;;;;;;;2.42;2.22;;;19.60;68.60;;;;;;5068469;28;43520;-59
2022/10/31 09:07:08;;;;;;;2.97;2.33;;;19.70;68.90;;;;;;5065523;28;44324;-59
2022/10/31 09:09:52;;;;;;;3.42;2.47;;;19.90;68.80;;;;;;5046996;28;43500;-59
2022/10/31 09:12:20;;;;;;;3.20;2.55;;;20.00;68.40;;;;;;5071116;28;43512;-60
2022/10/31 09:15:01;;;;;;;2.20;2.00;;;20.10;68.50;;;;;;5070447;28;43593;-60
2022/10/31 09:17:37;;;;;;;3.28;2.20;;;20.20;68.30;;;;;;5067927;28;44051;-58
2022/10/31 09:20:18;;;;;;;2.30;2.10;;;20.30;67.80;;;;;;5067258;28;43682;-58
2022/10/31 09:22:46;;;;;;;3.40;2.70;;;20.40;67.70;;;;;;5070135;28;43530;-61
2022/10/31 09:25:13;;;;;;;2.45;2.20;;;20.50;67.60;;;;;;5065857;28;43487;-59
2022/10/31 09:27:45;;;;;;;3.17;2.10;;;20.60;67.30;;;;;;5085143;27;44965;-61
2022/10/31 09:30:12;;;;;;;2.15;1.95;;;20.70;67.60;;;;;;5064220;28;43438;-61
2022/10/31 09:32:43;;;;;;;2.78;1.92;;;20.80;67.50;;;;;;5046635;28;43544;-61
2022/10/31 09:35:10;;;;;;;2.88;2.30;;;20.90;67.30;;;;;;5069038;28;43452;-61
2022/10/31 09:37:43;;;;;;;2.42;2.00;;;21.00;67.00;;;;;;5080962;27;44964;-62
2022/10/31 09:40:11;;;;;;;2.33;1.80;;;21.10;66.70;;;;;;5069357;28;43686;-61
2022/10/31 09:43:13;;;;;;;1.92;1.80;;;21.20;66.50;;;;;;5071726;28;43525;-61
2022/10/31 09:45:41;;;;;;;3.13;2.30;;;21.30;66.30;;;;;;5052957;28;44135;-62
2022/10/31 09:48:29;;;;;;;2.42;1.90;;;21.40;66.20;;;;;;5064802;28;44034;-62
2022/10/31 09:51:25;;;;;;;1.90;1.80;;;21.50;66.00;;;;;;5067410;28;43412;-60
2022/10/31 09:54:21;;;;;;;2.90;1.95;;;21.50;65.80;;;;;;5079722;28;43490;-61
2022/10/31 09:56:50;;;;;;;1.85;1.70;;;21.60;65.70;;;;;;5071457;28;43472;-61
2022/10/31 09:59:31;;;;;;;2.67;1.92;;;21.60;65.50;;;;;;5061791;28;44931;-61
2022/10/31 10:02:47;;;;;;;1.83;1.60;;;21.70;65.30;;;;;;5066042;28;44061;-61
2022/10/31 10:05:21;;;;;;;2.10;1.90;;;21.70;65.40;;;;;;5053964;28;43540;-62
2022/10/31 10:07:52;;;;;;;1.98;1.75;;;21.70;65.40;;;;;;5066984;28;43449;-61
2022/10/31 10:10:59;;;;;;;1.92;1.83;;;21.70;65.40;;;;;;5063974;28;43873;-61
2022/10/31 10:14:06;;;;;;;1.60;1.50;;;21.70;65.50;;;;;;5067066;28;43721;-61
2022/10/31 10:16:58;;;;;;;2.00;1.80;;;21.70;65.50;;;;;;5063588;28;43507;-61
2022/10/31 10:19:50;;;;;;;1.83;1.73;;;21.70;65.40;;;;;;5071827;28;43990;-61
2022/10/31 10:22:31;;;;;;;1.92;1.50;;;21.60;65.40;;;;;;5064774;28;43878;-62
2022/10/31 10:25:10;;;;;;;1.75;1.52;;;21.60;65.50;;;;;;5064726;28;43687;-61
2022/10/31 10:28:01;;;;;;;1.90;1.80;;;21.60;65.50;;;;;;5062519;28;43432;-60
2022/10/31 10:30:29;;;;;;;;;;;21.50;65.50;;;;;;5068331;28;43948;-61
2022/10/31 10:33:28;;;;;;;1.80;1.70;;;21.50;65.60;;;;;;5062017;28;44920;-62
2022/10/31 10:36:09;;;;;;;2.00;1.70;;;21.50;65.70;;;;;;5051330;28;43993;-61
2022/10/31 10:38:50;;;;;;;2.10;1.98;;;21.50;65.70;;;;;;5066756;28;43511;-60
2022/10/31 10:41:20;;;;;;;2.42;1.77;;;21.50;65.80;;;;;;5064577;28;43414;-61
2022/10/31 10:43:50;;;;;;;1.87;1.77;;;21.40;65.90;;;;;;5068201;28;44050;-60
2022/10/31 10:49:14;;;;;;;2.00;1.90;;;21.40;66.10;;;;;;5072763;28;43479;-60
2022/10/31 10:52:00;;;;;;;4.55;1.95;;;21.40;66.20;;;;;;5067192;28;43481;-62
2022/10/31 10:55:02;;;;;;;2.20;1.67;;;21.40;66.10;;;;;;5069751;28;44669;-60
2022/10/31 10:57:41;;;;;;;1.98;1.80;;;21.40;66.20;;;;;;5062503;28;44309;-61
2022/10/31 11:00:29;;;;;;;2.65;1.70;;;21.40;66.20;;;;;;5068169;28;43475;-60
2022/10/31 11:02:58;;;;;;;2.35;1.60;;;21.40;66.20;;;;;;5070107;28;43669;-61
2022/10/31 11:06:03;;;;;;;2.17;1.60;;;21.40;66.30;;;;;;5069158;28;43789;-61
2022/10/31 11:08:35;;;;;;;2.00;1.80;;;21.40;66.20;;;;;;5037374;28;43506;-61
2022/10/31 11:11:30;;;;;;;1.73;1.63;;;21.40;66.30;;;;;;5068737;28;43555;-61
2022/10/31 11:14:05;;;;;;;1.65;1.55;;;21.40;66.20;;;;;;5066788;28;43454;-60
2022/10/31 11:16:38;;;;;;;1.95;1.52;;;21.40;66.20;;;;;;5066456;28;44059;-60
2022/10/31 11:19:17;;;;;;;2.90;1.50;;;21.40;66.20;;;;;;5068898;27;43343;-60
2022/10/31 11:21:46;;;;;;;1.75;1.65;;;21.40;66.20;;;;;;5075866;28;43465;-61
2022/10/31 11:24:22;;;;;;;2.13;1.80;;;21.40;66.20;;;;;;5063763;28;43517;-61
2022/10/31 11:26:51;;;;;;;1.75;1.65;;;21.40;66.90;;;;;;5066994;28;44775;-61
2022/10/31 11:29:24;;;;;;;1.60;1.50;;;21.40;66.20;;;;;;5071187;28;43981;-60
2022/10/31 11:31:55;;;;;;;3.22;1.60;;;21.40;66.20;;;;;;5060825;28;43453;-60
2022/10/31 11:34:45;;;;;;;2.05;1.60;;;21.40;66.30;;;;;;5068299;28;44029;-61
2022/10/31 11:37:28;;;;;;;1.95;1.67;;;21.40;66.30;;;;;;5064975;27;45006;-60
2022/10/31 11:39:58;;;;;;;2.20;1.60;;;21.40;66.30;;;;;;5075506;27;43474;-61
2022/10/31 11:42:30;;;;;;;4.10;1.67;;;21.40;66.30;;;;;;5068571;28;43443;-61
2022/10/31 11:45:07;;;;;;;1.75;1.60;;;21.40;66.40;;;;;;5071639;28;43510;-61
2022/10/31 11:47:36;;;;;;;1.95;1.55;;;21.40;66.30;;;;;;5072487;28;43778;-61
2022/10/31 11:50:11;;;;;;;2.15;1.80;;;21.40;66.30;;;;;;5065225;28;43712;-61
2022/10/31 11:52:40;;;;;;;1.65;1.30;;;21.40;66.40;;;;;;5072245;28;43441;-60
2022/10/31 11:55:28;;;;;;;2.28;1.58;;;21.40;66.50;;;;;;5070719;28;43414;-61
2022/10/31 11:57:56;;;;;;;1.58;1.48;;;21.40;66.50;;;;;;5076886;28;44201;-60
2022/10/31 12:00:27;;;;;;;2.25;1.50;;;21.40;66.50;;;;;;5070588;27;43640;-61
2022/10/31 12:03:37;;;;;;;2.55;1.48;;;21.40;66.40;;;;;;5070205;28;43438;-61
2022/10/31 12:06:11;;;;;;;2.35;1.70;;;21.30;66.40;;;;;;5066792;28;43487;-61
2022/10/31 12:08:41;;;;;;;1.77;1.52;;;21.30;66.90;;;;;;5071718;28;43899;-61
2022/10/31 12:11:34;;;;;;;2.23;1.60;;;21.30;66.60;;;;;;5064650;28;43796;-61
2022/10/31 12:14:29;;;;;;;1.65;1.55;;;21.30;66.60;;;;;;5061493;28;43531;-61
2022/10/31 12:17:13;;;;;;;2.25;1.65;;;21.40;66.70;;;;;;5066801;28;43655;-61
2022/10/31 12:20:02;;;;;;;1.67;1.58;;;21.30;66.60;;;;;;5070514;28;44755;-61
2022/10/31 12:23:01;;;;;;;1.48;1.38;;;21.40;66.70;;;;;;5069308;28;43948;-61
2022/10/31 12:25:45;;;;;;;2.38;1.50;;;21.40;66.60;;;;;;5069083;28;43473;-61
2022/10/31 12:28:24;;;;;;;1.40;1.30;;;21.30;66.60;;;;;;5069212;28;43542;-60
2022/10/31 12:31:07;;;;;;;1.40;1.30;;;21.30;66.60;;;;;;5066949;28;43928;-61
2022/10/31 12:34:25;;;;;;;1.60;1.50;;;21.30;66.60;;;;;;5070709;28;43482;-61
2022/10/31 12:37:12;;;;;;;1.85;1.40;;;21.30;66.50;;;;;;5018609;28;43519;-61
2022/10/31 12:40:06;;;;;;;1.50;1.35;;;21.30;66.60;;;;;;5061619;28;43555;-60
2022/10/31 12:42:55;;;;;;;1.55;1.45;;;21.30;66.60;;;;;;5064891;28;44986;-60
2022/10/31 12:45:40;;;;;;;2.08;1.63;;;21.30;66.60;;;;;;5065184;28;43494;-61
2022/10/31 12:48:26;;;;;;;1.63;1.52;;;21.30;66.50;;;;;;5069420;28;43501;-61
2022/10/31 12:51:09;;;;;;;1.60;1.50;;;21.30;66.40;;;;;;5069933;28;43526;-61
2022/10/31 12:54:06;;;;;;;1.83;1.20;;;21.30;66.60;;;;;;5065673;28;44689;-61
2022/10/31 12:56:52;;;;;;;1.83;1.70;;;21.30;66.60;;;;;;5067043;28;43506;-61
2022/10/31 12:59:35;;;;;;;1.38;1.30;;;21.30;66.60;;;;;;5069415;28;43498;-61
2022/10/31 13:02:20;;;;;;;3.15;1.33;;;21.30;66.60;;;;;;5070643;27;43495;-60
2022/10/31 13:04:51;;;;;;;1.60;1.50;;;21.30;66.60;;;;;;5066664;28;45000;-61
2022/10/31 13:07:44;;;;;;;1.40;1.23;;;21.30;66.60;;;;;;5066202;28;43641;-61
2022/10/31 13:10:31;;;;;;;1.20;1.10;;;21.30;66.60;;;;;;5064712;28;43452;-60
2022/10/31 13:13:06;;;;;;;1.80;1.35;;;21.30;66.70;;;;;;5069427;28;43549;-61
2022/10/31 13:15:49;;;;;;;1.65;1.40;;;21.30;66.70;;;;;;5060327;28;44735;-60
2022/10/31 13:18:33;;;;;;;2.08;1.30;;;21.30;66.60;;;;;;5073457;28;43438;-60
2022/10/31 13:21:08;;;;;;;1.88;1.45;;;21.30;66.70;;;;;;5065734;28;43450;-61
2022/10/31 13:23:37;;;;;;;1.90;1.70;;;21.20;66.60;;;;;;5069040;27;43643;-61
2022/10/31 13:26:32;;;;;;;2.28;1.38;;;21.30;66.90;;;;;;5061973;28;44705;-60
2022/10/31 13:29:27;;;;;;;2.38;1.35;;;21.20;66.70;;;;;;5062180;28;43610;-60
2022/10/31 13:32:03;;;;;;;1.95;1.20;;;21.30;66.70;;;;;;5062770;28;43457;-61
2022/10/31 13:34:41;;;;;;;1.27;1.17;;;21.20;66.90;;;;;;5066900;28;43546;-61
2022/10/31 13:37:40;;;;;;;1.55;1.40;;;21.20;66.80;;;;;;5067579;28;44042;-60
2022/10/31 13:40:17;;;;;;;2.25;1.40;;;21.20;66.90;;;;;;5066224;28;43494;-60